createdAt,value
2023-12-16T00:02:43.675Z,99.90
2023-12-16T00:07:47.157Z,99.90
2023-12-16T00:12:50.662Z,99.90
2023-12-16T00:17:56.069Z,99.90
2023-12-16T00:22:59.581Z,99.90
2023-12-16T00:28:03.194Z,99.90
2023-12-16T00:33:08.107Z,99.90
2023-12-16T00:38:11.679Z,99.90
2023-12-16T00:43:15.752Z,99.90
2023-12-16T00:48:20.677Z,99.90
2023-12-16T00:53:24.155Z,99.90
2023-12-16T00:58:27.745Z,99.90
2023-12-16T01:03:32.855Z,99.90
2023-12-16T01:08:36.385Z,99.90
2023-12-16T01:13:40.055Z,99.90
2023-12-16T01:18:45.676Z,99.90
2023-12-16T01:23:49.222Z,99.90
2023-12-16T01:28:52.682Z,99.90
2023-12-16T01:33:57.546Z,99.90
2023-12-16T01:39:01.375Z,99.90
2023-12-16T01:44:04.865Z,99.90
2023-12-16T01:49:10.122Z,99.90
2023-12-16T01:54:14.656Z,99.90
2023-12-16T01:59:18.255Z,99.90
2023-12-16T02:04:23.255Z,99.90
2023-12-16T02:09:26.827Z,99.90
2023-12-16T02:14:30.316Z,99.90
2023-12-16T02:19:35.979Z,99.90
2023-12-16T02:24:43.221Z,99.90
2023-12-16T02:29:46.890Z,99.90
2023-12-16T02:34:50.541Z,99.90
2023-12-16T02:39:55.375Z,99.90
2023-12-16T02:44:58.912Z,99.90
2023-12-16T02:50:03.318Z,99.90
2023-12-16T02:55:09.119Z,99.90
2023-12-16T03:00:13.747Z,99.90
2023-12-16T03:05:17.349Z,99.90
2023-12-16T03:10:22.310Z,99.90
2023-12-16T03:15:25.901Z,99.90
2023-12-16T03:20:29.376Z,99.90
2023-12-16T03:25:34.270Z,99.90
2023-12-16T03:30:38.431Z,99.90
2023-12-16T03:35:41.980Z,99.90
2023-12-16T03:40:46.881Z,99.90
2023-12-16T03:45:50.437Z,99.90
2023-12-16T03:50:54.381Z,99.90
2023-12-16T03:55:59.303Z,99.90
2023-12-16T04:01:03.067Z,99.90
2023-12-16T04:06:07.198Z,99.90
2023-12-16T04:11:12.100Z,99.90
2023-12-16T04:16:15.660Z,99.90
2023-12-16T04:21:19.094Z,99.90
2023-12-16T04:26:24.356Z,99.90
2023-12-16T04:31:28.118Z,99.90
2023-12-16T04:36:32.217Z,99.90
2023-12-16T04:41:37.009Z,99.90
2023-12-16T04:46:40.464Z,99.90
2023-12-16T04:51:43.936Z,99.90
2023-12-16T04:56:49.744Z,99.90
2023-12-16T05:01:53.420Z,99.90
2023-12-16T05:06:56.977Z,99.90
2023-12-16T05:12:01.971Z,99.90
2023-12-16T05:17:06.012Z,99.90
2023-12-16T05:22:09.983Z,99.90
2023-12-16T05:27:14.827Z,99.90
2023-12-16T05:32:18.700Z,99.90
2023-12-16T05:37:22.252Z,99.90
2023-12-16T05:42:27.097Z,99.90
2023-12-16T05:47:30.593Z,99.90
2023-12-16T05:52:34.114Z,99.90
2023-12-16T05:57:39.368Z,99.90
2023-12-16T06:02:43.049Z,99.90
2023-12-16T06:07:47.405Z,99.90
2023-12-16T06:12:52.317Z,99.90
2023-12-16T06:17:56.312Z,99.90
2023-12-16T06:22:59.693Z,99.90
2023-12-16T06:28:04.960Z,99.90
2023-12-16T06:33:08.546Z,99.90
2023-12-16T06:38:12.646Z,99.90
2023-12-16T06:43:17.527Z,99.90
2023-12-16T06:48:21.100Z,99.90
2023-12-16T06:53:24.586Z,99.90
2023-12-16T06:58:29.490Z,99.90
2023-12-16T07:03:33.078Z,99.90
2023-12-16T07:08:37.992Z,99.90
2023-12-16T07:13:42.970Z,99.90
2023-12-16T07:18:46.564Z,99.90
2023-12-16T07:23:50.025Z,99.90
2023-12-16T07:28:55.141Z,99.90
2023-12-16T07:33:59.076Z,99.90
2023-12-16T07:39:02.645Z,99.90
2023-12-16T07:44:07.540Z,99.90
2023-12-16T07:49:11.379Z,99.90
2023-12-16T07:54:14.967Z,99.90
2023-12-16T07:59:19.799Z,99.90
2023-12-16T08:04:24.452Z,99.90
2023-12-16T08:09:27.961Z,99.90
2023-12-16T08:14:33.180Z,99.90
2023-12-16T08:19:36.778Z,99.90
2023-12-16T08:24:42.741Z,99.90
2023-12-16T08:29:48.238Z,99.90
2023-12-16T08:34:51.805Z,99.90
2023-12-16T08:39:55.325Z,99.90
2023-12-16T08:45:00.477Z,99.90
2023-12-16T08:50:04.451Z,99.90
2023-12-16T08:55:08.212Z,99.90
2023-12-16T09:00:13.864Z,99.90
2023-12-16T09:05:20.189Z,99.90
2023-12-16T09:10:23.685Z,99.90
2023-12-16T09:15:28.647Z,99.90
2023-12-16T09:20:32.909Z,99.90
2023-12-16T09:25:36.490Z,99.90
2023-12-16T09:30:42.128Z,99.90
2023-12-16T09:35:45.799Z,99.90
2023-12-16T09:40:49.376Z,99.90
2023-12-16T09:45:55.035Z,99.90
2023-12-16T09:50:58.553Z,99.90
2023-12-16T09:56:02.014Z,99.90
2023-12-16T10:01:09.546Z,99.90
2023-12-16T10:06:13.438Z,99.90
2023-12-16T10:11:17.438Z,99.90
2023-12-16T10:16:23.237Z,99.30
2023-12-16T10:21:27.886Z,98.40
2023-12-16T10:26:32.844Z,97.20
2023-12-16T10:31:39.538Z,96.30
2023-12-16T10:36:43.016Z,95.30
2023-12-16T10:41:46.507Z,94.90
2023-12-16T10:46:53.413Z,94.40
2023-12-16T10:52:05.350Z,93.70
2023-12-16T10:57:18.098Z,93.70
2023-12-16T11:02:28.380Z,93.00
2023-12-16T11:07:35.447Z,92.60
2023-12-16T11:12:40.911Z,92.40
2023-12-16T11:17:54.729Z,91.90
2023-12-16T11:22:58.174Z,91.30
2023-12-16T11:28:04.089Z,90.50
2023-12-16T11:33:09.443Z,89.50
2023-12-16T11:38:42.794Z,88.60
2023-12-16T11:43:53.591Z,87.10
2023-12-16T11:48:59.169Z,86.20
2023-12-16T11:54:04.415Z,84.60
2023-12-16T11:59:09.275Z,82.50
2023-12-16T12:04:14.355Z,82.40
2023-12-16T12:09:17.941Z,80.70
2023-12-16T12:14:21.390Z,80.20
2023-12-16T12:19:26.380Z,79.50
2023-12-16T12:24:29.897Z,77.70
2023-12-16T12:29:54.954Z,76.90
2023-12-16T12:35:05.119Z,75.40
2023-12-16T12:40:19.464Z,75.00
2023-12-16T12:45:27.838Z,73.30
2023-12-16T12:50:32.708Z,72.00
2023-12-16T12:55:36.213Z,72.90
2023-12-16T13:00:40.432Z,72.00
2023-12-16T13:05:45.588Z,71.10
2023-12-16T13:10:52.269Z,71.00
2023-12-16T13:15:57.412Z,71.00
2023-12-16T13:21:04.765Z,71.10
2023-12-16T13:26:12.674Z,70.40
2023-12-16T13:31:16.172Z,70.00
2023-12-16T13:36:33.950Z,69.40
2023-12-16T13:41:44.302Z,69.40
2023-12-16T13:46:47.792Z,69.70
2023-12-16T13:51:52.665Z,69.70
2023-12-16T13:56:56.135Z,68.70
2023-12-16T14:01:59.599Z,68.80
2023-12-16T14:07:04.531Z,68.10
2023-12-16T14:12:08.408Z,67.50
2023-12-16T14:17:11.939Z,67.20
2023-12-16T14:22:16.790Z,66.90
2023-12-16T14:27:20.224Z,66.80
2023-12-16T14:32:24.259Z,66.60
2023-12-16T14:37:29.190Z,66.20
2023-12-16T14:42:32.685Z,66.20
2023-12-16T14:47:36.481Z,66.60
2023-12-16T14:52:41.547Z,66.50
2023-12-16T14:57:45.179Z,66.50
2023-12-16T15:02:49.189Z,66.50
2023-12-16T15:07:54.942Z,66.60
2023-12-16T15:13:05.620Z,66.50
2023-12-16T15:18:11.038Z,66.70
2023-12-16T15:23:15.925Z,66.70
2023-12-16T15:28:19.390Z,66.80
2023-12-16T15:33:23.126Z,67.00
2023-12-16T15:38:28.192Z,67.20
2023-12-16T15:43:31.748Z,67.50
2023-12-16T15:48:35.370Z,67.90
2023-12-16T15:53:42.856Z,68.10
2023-12-16T15:58:46.349Z,68.30
2023-12-16T16:03:50.343Z,68.80
2023-12-16T16:08:55.237Z,69.60
2023-12-16T16:13:58.911Z,70.20
2023-12-16T16:19:05.279Z,70.70
2023-12-16T16:24:11.590Z,71.20
2023-12-16T16:29:15.209Z,71.60
2023-12-16T16:39:24.137Z,72.10
2023-12-16T16:44:27.793Z,72.80
2023-12-16T16:49:31.358Z,73.10
2023-12-16T16:54:37.160Z,73.40
2023-12-16T17:04:45.519Z,73.50
2023-12-16T17:09:50.331Z,74.00
2023-12-16T17:14:55.029Z,74.50
2023-12-16T17:19:58.534Z,75.00
2023-12-16T17:25:04.133Z,75.20
2023-12-16T17:30:09.078Z,75.40
2023-12-16T17:35:12.590Z,75.30
2023-12-16T17:40:17.641Z,76.00
2023-12-16T17:45:21.297Z,76.60
2023-12-16T17:50:25.325Z,76.80
2023-12-16T17:55:30.131Z,76.80
2023-12-16T18:00:33.924Z,77.00
2023-12-16T18:05:37.447Z,77.10
2023-12-16T18:10:42.272Z,77.20
2023-12-16T18:15:45.748Z,77.30
2023-12-16T18:21:00.129Z,77.00
2023-12-16T18:26:08.995Z,77.40
2023-12-16T18:31:13.785Z,77.60
2023-12-16T18:36:17.945Z,77.90
2023-12-16T18:41:22.785Z,77.90
2023-12-16T18:46:31.550Z,78.00
2023-12-16T18:51:34.997Z,78.60
2023-12-16T18:56:39.820Z,79.10
2023-12-16T19:01:43.369Z,79.50
2023-12-16T19:06:46.868Z,79.70
2023-12-16T19:11:53.937Z,79.90
2023-12-16T19:16:57.505Z,80.10
2023-12-16T19:22:00.950Z,80.20
2023-12-16T19:27:06.391Z,80.50
2023-12-16T19:32:09.828Z,81.00
2023-12-16T19:37:13.398Z,81.40
2023-12-16T19:42:18.597Z,81.60
2023-12-16T19:47:25.941Z,82.00
2023-12-16T19:52:29.508Z,81.90
2023-12-16T19:57:34.299Z,82.20
2023-12-16T20:02:37.762Z,82.10
2023-12-16T20:07:41.632Z,82.30
2023-12-16T20:12:47.456Z,82.70
2023-12-16T20:17:51.317Z,82.70
2023-12-16T20:22:54.977Z,82.90
2023-12-16T20:27:59.847Z,83.30
2023-12-16T20:33:03.482Z,83.50
2023-12-16T20:38:27.073Z,83.70
2023-12-16T20:43:31.842Z,83.80
2023-12-16T20:48:36.523Z,83.90
2023-12-16T20:53:42.927Z,83.70
2023-12-16T20:58:47.837Z,83.80
2023-12-16T21:03:51.311Z,84.10
2023-12-16T21:08:54.911Z,84.20
2023-12-16T21:13:59.764Z,84.30
2023-12-16T21:19:03.336Z,84.20
2023-12-16T21:24:07.422Z,84.50
2023-12-16T21:29:12.597Z,84.70
2023-12-16T21:34:16.620Z,84.60
2023-12-16T21:39:20.322Z,85.10
2023-12-16T21:44:25.146Z,85.10
2023-12-16T21:49:28.658Z,85.10
2023-12-16T21:54:32.261Z,85.30
2023-12-16T21:59:37.093Z,85.40
2023-12-16T22:04:40.935Z,85.10
2023-12-16T22:09:44.645Z,85.20
2023-12-16T22:14:49.559Z,86.10
2023-12-16T22:19:58.120Z,86.00
2023-12-16T22:25:01.715Z,86.00
2023-12-16T22:30:10.702Z,86.00
2023-12-16T22:35:14.326Z,86.00
2023-12-16T22:40:18.177Z,86.30
2023-12-16T22:45:23.088Z,86.20
2023-12-16T22:50:26.774Z,86.30
2023-12-16T22:55:30.323Z,86.50
2023-12-16T23:00:36.520Z,86.60
2023-12-16T23:05:41.238Z,86.90
2023-12-16T23:10:45.030Z,86.70
2023-12-16T23:15:49.798Z,86.80
2023-12-16T23:20:53.292Z,87.30
2023-12-16T23:25:56.731Z,87.60
2023-12-16T23:31:08.659Z,87.80
2023-12-16T23:36:18.472Z,87.60
2023-12-16T23:41:22.798Z,87.50
2023-12-16T23:46:28.617Z,87.50
2023-12-16T23:51:32.096Z,87.90
2023-12-16T23:56:35.626Z,87.90
